Time;durP1;ratioP1;P1;durP2;ratioP2;P2;SDS_P1;SDS_P2;PMS_P1;PMS_P2;Temp;Humidity;BMP_temperature;BMP_pressure;BME280_temperature;BME280_humidity;BME280_pressure;Samples;Min_cycle;Max_cycle;Signal;HPM_P1;HPM_P2
2023/09/11 00:00:56;;;;;;;13.63;5.80;;;18.40;99.90;;;;;;5051584;28;20216;-83
2023/09/11 00:03:21;;;;;;;8.50;6.10;;;18.30;99.90;;;;;;5064166;28;20495;-86
2023/09/11 00:05:48;;;;;;;9.80;6.90;;;18.30;99.90;;;;;;5061926;28;20184;-83
2023/09/11 00:08:14;;;;;;;7.50;5.60;;;18.30;99.90;;;;;;5073356;28;20206;-82
2023/09/11 00:10:39;;;;;;;7.27;5.90;;;18.30;99.90;;;;;;5060734;28;20458;-83
2023/09/11 00:13:05;;;;;;;10.17;5.00;;;18.20;99.90;;;;;;5077652;28;20216;-81
2023/09/11 00:15:32;;;;;;;10.60;6.67;;;18.00;99.90;;;;;;5067595;28;20252;-80
2023/09/11 00:17:58;;;;;;;14.57;6.90;;;18.00;99.90;;;;;;5074177;28;20176;-80
2023/09/11 00:20:23;;;;;;;7.57;6.40;;;18.00;99.90;;;;;;5067426;28;20507;-84
2023/09/11 00:22:49;;;;;;;7.10;5.63;;;18.00;99.90;;;;;;5058592;28;20214;-79
2023/09/11 00:25:14;;;;;;;11.10;6.10;;;18.00;99.90;;;;;;5061631;28;20184;-80
2023/09/11 00:27:40;;;;;;;9.47;6.57;;;18.00;99.90;;;;;;5060689;28;20215;-83
2023/09/11 00:30:06;;;;;;;9.00;6.53;;;18.00;99.90;;;;;;5059445;28;20213;-87
2023/09/11 00:32:32;;;;;;;9.60;6.50;;;17.90;99.90;;;;;;5060885;28;20541;-80
2023/09/11 00:34:58;;;;;;;10.23;6.80;;;17.90;99.90;;;;;;5058863;28;20538;-82
2023/09/11 00:37:23;;;;;;;12.40;7.80;;;17.90;99.90;;;;;;5059904;28;20185;-84
2023/09/11 00:39:49;;;;;;;7.10;5.90;;;17.80;99.90;;;;;;5066998;28;20219;-80
2023/09/11 00:42:14;;;;;;;7.63;6.50;;;17.80;99.90;;;;;;5077800;28;20184;-79
2023/09/11 00:44:40;;;;;;;13.03;7.07;;;17.70;99.90;;;;;;5065667;28;20298;-84
2023/09/11 00:47:05;;;;;;;8.60;6.30;;;17.70;99.90;;;;;;5058961;28;20202;-82
2023/09/11 00:49:31;;;;;;;10.13;7.60;;;17.70;99.90;;;;;;5065067;28;20709;-80
2023/09/11 00:51:57;;;;;;;13.93;7.97;;;17.50;99.90;;;;;;5060934;28;21057;-81
2023/09/11 00:54:23;;;;;;;9.60;8.10;;;17.40;99.90;;;;;;5058891;28;20644;-86
2023/09/11 00:56:49;;;;;;;13.77;7.37;;;17.20;99.90;;;;;;5058459;28;20188;-85
2023/09/11 00:59:17;;;;;;;9.67;7.27;;;17.10;99.90;;;;;;5053997;28;20485;-79
2023/09/11 01:01:44;;;;;;;9.43;7.27;;;17.10;99.90;;;;;;5075320;28;20450;-84
2023/09/11 01:04:09;;;;;;;12.00;7.83;;;17.10;99.90;;;;;;5048753;28;20529;-81
2023/09/11 01:06:35;;;;;;;15.43;7.70;;;16.90;99.90;;;;;;5053466;28;20808;-85
2023/09/11 01:09:02;;;;;;;12.70;7.97;;;16.80;99.90;;;;;;5052434;28;20469;-81
2023/09/11 01:11:28;;;;;;;9.80;7.23;;;16.80;99.90;;;;;;5052239;28;20206;-86
2023/09/11 01:13:54;;;;;;;9.03;7.43;;;16.90;99.90;;;;;;5052191;28;21744;-85
2023/09/11 01:17:09;;;;;;;11.00;7.63;;;16.80;99.90;;;;;;5068825;28;20200;-76
2023/09/11 01:19:55;;;;;;;16.10;8.60;;;16.60;99.90;;;;;;5044482;28;20479;-77
2023/09/11 01:22:30;;;;;;;24.97;7.37;;;16.60;99.90;;;;;;5067637;28;22687;-80
2023/09/11 01:25:11;;;;;;;7.77;6.73;;;16.70;99.90;;;;;;5045894;28;20865;-81
2023/09/11 01:27:58;;;;;;;13.90;7.73;;;16.60;99.90;;;;;;5059247;28;20462;-82
2023/09/11 01:30:25;;;;;;;10.33;8.30;;;16.70;99.90;;;;;;5057662;28;20463;-84
2023/09/11 01:32:51;;;;;;;11.63;7.07;;;16.70;99.90;;;;;;5056465;28;20455;-82
2023/09/11 01:35:16;;;;;;;7.87;6.33;;;16.70;99.90;;;;;;5056669;28;20973;-84
2023/09/11 01:37:42;;;;;;;9.07;7.27;;;16.70;99.90;;;;;;5056021;28;20482;-85
2023/09/11 01:40:08;;;;;;;10.87;7.90;;;16.70;99.90;;;;;;5055688;28;20231;-84
2023/09/11 01:42:41;;;;;;;11.73;7.30;;;16.60;99.90;;;;;;5054424;28;20199;-87
2023/09/11 01:45:09;;;;;;;9.70;8.10;;;16.50;99.90;;;;;;5049214;28;20459;-84
2023/09/11 01:47:36;;;;;;;13.90;7.20;;;16.50;99.90;;;;;;5057931;28;20499;-78
2023/09/11 01:50:04;;;;;;;8.30;7.47;;;16.50;99.90;;;;;;5065872;28;20454;-78
2023/09/11 01:52:32;;;;;;;9.07;7.87;;;16.50;99.90;;;;;;5062951;28;20507;-82
2023/09/11 01:54:58;;;;;;;13.53;7.53;;;16.50;99.90;;;;;;5050599;28;20497;-84
2023/09/11 01:57:30;;;;;;;10.30;7.73;;;16.50;99.90;;;;;;5061153;28;20499;-81
2023/09/11 01:59:55;;;;;;;9.83;7.73;;;16.40;99.90;;;;;;5070533;28;21225;-79
2023/09/11 02:02:21;;;;;;;12.40;8.10;;;16.40;99.90;;;;;;5058248;28;20516;-83
2023/09/11 02:04:46;;;;;;;14.50;7.80;;;16.30;99.90;;;;;;5059463;28;20239;-79
2023/09/11 02:07:12;;;;;;;9.77;7.50;;;16.30;99.90;;;;;;5058566;28;20183;-82
2023/09/11 02:09:37;;;;;;;13.97;8.83;;;16.30;99.90;;;;;;5059893;28;20200;-80
2023/09/11 02:12:03;;;;;;;9.93;8.07;;;16.10;99.90;;;;;;5055684;28;20763;-83
2023/09/11 02:14:28;;;;;;;9.57;7.80;;;16.10;99.90;;;;;;5055170;28;20192;-79
2023/09/11 02:16:54;;;;;;;10.00;7.73;;;16.10;99.90;;;;;;5058773;28;20195;-80
2023/09/11 02:19:19;;;;;;;10.17;8.20;;;16.20;99.90;;;;;;5060207;28;20219;-80
2023/09/11 02:21:45;;;;;;;14.73;8.20;;;16.60;99.90;;;;;;5069519;28;20291;-85
2023/09/11 02:24:10;;;;;;;9.60;7.50;;;16.50;99.90;;;;;;5063494;28;20761;-88
2023/09/11 02:26:36;;;;;;;13.20;8.90;;;16.20;99.90;;;;;;5057886;28;20201;-85
2023/09/11 02:29:02;;;;;;;11.20;8.13;;;17.60;99.90;;;;;;5059872;28;20220;-83
2023/09/11 02:31:27;;;;;;;13.27;8.30;;;16.20;99.90;;;;;;5058803;28;20218;-84
2023/09/11 02:33:53;;;;;;;13.70;7.50;;;16.30;99.90;;;;;;5053834;28;20633;-80
2023/09/11 02:36:18;;;;;;;11.07;8.50;;;16.40;99.90;;;;;;5047590;28;20215;-82
2023/09/11 02:38:44;;;;;;;11.60;8.50;;;16.30;99.90;;;;;;5054543;28;23996;-84
2023/09/11 02:41:09;;;;;;;13.40;7.77;;;16.30;99.90;;;;;;5054463;28;20526;-82
2023/09/11 02:43:35;;;;;;;12.47;7.77;;;16.20;99.90;;;;;;5061219;28;20180;-84
2023/09/11 02:46:00;;;;;;;13.00;8.43;;;16.20;99.90;;;;;;5052535;28;20191;-80
2023/09/11 02:48:27;;;;;;;13.93;8.00;;;16.10;99.90;;;;;;5059024;28;20290;-85
2023/09/11 02:50:52;;;;;;;11.73;8.67;;;15.90;99.90;;;;;;5051317;28;20205;-80
2023/09/11 02:53:18;;;;;;;13.73;9.30;;;15.80;99.90;;;;;;5044988;28;20461;-83
2023/09/11 02:55:44;;;;;;;13.47;8.70;;;15.80;99.90;;;;;;5058192;28;20235;-78
2023/09/11 02:58:09;;;;;;;10.23;8.23;;;15.80;99.90;;;;;;5046434;28;20759;-82
2023/09/11 03:00:38;;;;;;;12.27;7.10;;;15.90;99.90;;;;;;5054077;28;20234;-83
2023/09/11 03:03:05;;;;;;;10.93;7.83;;;15.90;99.90;;;;;;5050751;28;20183;-81
2023/09/11 03:05:32;;;;;;;11.60;8.50;;;15.90;99.90;;;;;;5048928;28;20501;-85
2023/09/11 03:08:01;;;;;;;10.03;7.80;;;15.90;99.90;;;;;;5053205;28;20510;-83
2023/09/11 03:10:30;;;;;;;15.50;8.80;;;16.20;99.90;;;;;;5053840;28;20532;-79
2023/09/11 03:12:56;;;;;;;17.87;9.77;;;16.10;99.90;;;;;;5049362;28;20450;-79
2023/09/11 03:15:27;;;;;;;10.83;7.60;;;16.00;99.90;;;;;;5047232;28;20805;-83
2023/09/11 03:17:52;;;;;;;9.50;7.97;;;16.00;99.90;;;;;;5074867;28;20458;-77
2023/09/11 03:20:18;;;;;;;11.70;8.33;;;16.00;99.90;;;;;;5066752;28;21103;-80
2023/09/11 03:22:44;;;;;;;12.00;9.17;;;15.90;99.90;;;;;;5061611;28;20225;-77
2023/09/11 03:25:10;;;;;;;10.33;8.40;;;15.90;99.90;;;;;;5064928;28;20216;-78
2023/09/11 03:27:35;;;;;;;14.73;8.10;;;15.90;99.90;;;;;;5073713;28;21041;-84
2023/09/11 03:30:01;;;;;;;12.13;8.73;;;15.90;99.90;;;;;;5062599;28;20216;-82
2023/09/11 03:32:26;;;;;;;15.80;8.77;;;15.80;99.90;;;;;;5058685;28;20202;-83
2023/09/11 03:34:53;;;;;;;10.57;8.83;;;15.80;99.90;;;;;;5060828;28;20197;-83
2023/09/11 03:37:20;;;;;;;15.60;9.13;;;15.80;99.90;;;;;;5055287;28;20253;-81
2023/09/11 03:39:45;;;;;;;26.07;9.73;;;15.80;99.90;;;;;;5057430;28;20470;-84
2023/09/11 03:42:11;;;;;;;16.00;9.87;;;15.80;99.90;;;;;;5060423;28;20439;-85
2023/09/11 03:44:36;;;;;;;14.23;9.90;;;15.80;99.90;;;;;;5056547;28;20673;-82
2023/09/11 03:47:02;;;;;;;15.50;9.30;;;15.90;99.90;;;;;;5055760;28;20189;-79
2023/09/11 03:49:28;;;;;;;14.27;9.37;;;15.80;99.90;;;;;;5054707;28;20200;-81
2023/09/11 03:51:53;;;;;;;13.70;9.87;;;16.20;99.90;;;;;;5088018;28;20224;-77
2023/09/11 03:54:19;;;;;;;15.27;9.00;;;15.70;99.90;;;;;;5087203;28;20216;-80
2023/09/11 03:56:44;;;;;;;12.97;9.07;;;15.60;99.90;;;;;;5074605;28;20196;-83
2023/09/11 03:59:10;;;;;;;11.00;8.03;;;15.60;99.90;;;;;;5060927;28;20214;-85
2023/09/11 04:01:35;;;;;;;13.83;9.63;;;16.30;99.90;;;;;;5069273;28;20288;-79
2023/09/11 04:04:01;;;;;;;11.70;9.00;;;15.60;99.90;;;;;;5062187;28;20288;-84
2023/09/11 04:06:26;;;;;;;10.83;8.50;;;15.60;99.90;;;;;;5057231;28;20196;-78
2023/09/11 04:08:52;;;;;;;12.57;10.40;;;15.50;99.90;;;;;;5067508;28;20203;-80
2023/09/11 04:11:22;;;;;;;10.93;8.53;;;15.50;99.90;;;;;;5060334;28;20199;-84
2023/09/11 04:13:48;;;;;;;9.30;8.27;;;15.50;99.90;;;;;;5057586;28;20193;-79
2023/09/11 04:16:15;;;;;;;10.87;8.90;;;15.50;99.90;;;;;;5058584;28;20454;-85
2023/09/11 04:18:42;;;;;;;11.00;8.70;;;15.40;99.90;;;;;;5059809;28;20446;-82
2023/09/11 04:21:08;;;;;;;14.43;8.97;;;15.30;99.90;;;;;;5053842;28;20522;-80
2023/09/11 04:23:33;;;;;;;12.50;9.23;;;15.30;99.90;;;;;;5057717;28;20530;-84
2023/09/11 04:25:59;;;;;;;12.67;8.93;;;15.30;99.90;;;;;;5055474;28;20434;-81
2023/09/11 04:28:25;;;;;;;11.53;8.50;;;15.30;99.90;;;;;;5055145;28;20248;-78
2023/09/11 04:30:50;;;;;;;13.20;9.67;;;15.60;99.90;;;;;;5076852;28;20230;-77
2023/09/11 04:33:18;;;;;;;13.33;9.77;;;15.00;99.90;;;;;;5071309;28;20191;-84
2023/09/11 04:35:43;;;;;;;13.37;8.93;;;14.90;99.90;;;;;;5065747;28;20184;-80
2023/09/11 04:38:09;;;;;;;11.67;8.80;;;14.90;99.90;;;;;;5064334;28;21030;-78
2023/09/11 04:40:35;;;;;;;12.90;9.37;;;15.00;99.90;;;;;;5061394;28;20317;-86
2023/09/11 04:43:00;;;;;;;13.40;10.37;;;15.40;99.90;;;;;;5061761;28;20244;-83
2023/09/11 04:45:26;;;;;;;17.87;10.80;;;14.70;99.90;;;;;;5059399;28;20253;-87
2023/09/11 04:47:51;;;;;;;15.93;9.43;;;14.50;99.90;;;;;;5059020;28;20184;-79
2023/09/11 04:50:17;;;;;;;15.80;9.70;;;14.60;99.90;;;;;;5061713;28;20200;-82
2023/09/11 04:52:42;;;;;;;15.80;9.17;;;16.10;99.90;;;;;;5051708;28;20717;-79
2023/09/11 04:55:08;;;;;;;13.50;8.50;;;14.70;99.90;;;;;;5052315;28;20310;-82
2023/09/11 04:57:34;;;;;;;16.03;11.50;;;14.80;99.90;;;;;;5056689;28;20203;-81
2023/09/11 05:00:00;;;;;;;18.80;11.40;;;14.80;99.90;;;;;;5054523;28;20505;-80
2023/09/11 05:02:26;;;;;;;13.37;9.50;;;15.50;99.90;;;;;;5054013;28;22555;-85
2023/09/11 05:04:51;;;;;;;14.60;10.43;;;14.90;99.90;;;;;;5053117;28;20200;-79
2023/09/11 05:07:17;;;;;;;15.60;10.77;;;15.00;99.90;;;;;;5064013;28;20223;-81
2023/09/11 05:09:43;;;;;;;18.23;10.30;;;15.00;99.90;;;;;;5056241;28;20709;-79
2023/09/11 05:12:08;;;;;;;16.40;10.00;;;15.30;99.90;;;;;;5053954;28;20192;-85
2023/09/11 05:14:34;;;;;;;12.33;9.50;;;15.10;99.90;;;;;;5053716;28;20199;-82
2023/09/11 05:16:59;;;;;;;13.30;9.40;;;15.20;99.90;;;;;;5061792;28;20215;-84
2023/09/11 05:19:25;;;;;;;13.63;9.20;;;17.00;99.90;;;;;;5064580;28;20220;-81
2023/09/11 05:21:50;;;;;;;15.17;9.13;;;15.70;99.90;;;;;;5066593;28;20219;-86
2023/09/11 05:24:16;;;;;;;13.80;9.80;;;16.10;99.90;;;;;;5064884;28;20188;-80
2023/09/11 05:26:41;;;;;;;12.77;9.33;;;17.20;99.90;;;;;;5060289;28;20206;-83
2023/09/11 05:29:07;;;;;;;15.50;9.07;;;18.30;99.90;;;;;;5074869;28;20228;-86
2023/09/11 05:31:32;;;;;;;9.80;7.83;;;20.90;99.90;;;;;;5071307;28;20430;-83
2023/09/11 05:33:58;;;;;;;10.57;8.40;;;21.00;99.90;;;;;;5058903;28;20199;-87
2023/09/11 05:36:24;;;;;;;15.20;8.27;;;22.40;99.90;;;;;;5054927;28;20180;-78
2023/09/11 05:38:49;;;;;;;8.70;7.63;;;23.70;99.90;;;;;;5070015;28;20188;-79
2023/09/11 05:41:15;;;;;;;15.30;7.77;;;24.90;99.90;;;;;;5054552;28;20487;-79
2023/09/11 05:43:41;;;;;;;9.13;8.03;;;26.00;99.90;;;;;;5054143;28;20342;-82
2023/09/11 05:46:07;;;;;;;12.50;8.40;;;27.00;99.90;;;;;;5059329;28;20188;-86
2023/09/11 05:48:33;;;;;;;10.27;7.30;;;27.80;99.90;;;;;;5055998;28;20438;-80
2023/09/11 05:50:59;;;;;;;8.70;7.60;;;28.80;99.90;;;;;;5066471;28;20472;-81
2023/09/11 05:53:24;;;;;;;9.73;8.40;;;29.50;99.90;;;;;;5062263;28;20186;-79
2023/09/11 05:55:50;;;;;;;12.43;8.77;;;30.20;99.90;;;;;;5061634;28;20196;-80
2023/09/11 05:58:15;;;;;;;13.47;8.00;;;30.90;99.80;;;;;;5056221;28;20309;-82
2023/09/11 06:00:42;;;;;;;8.60;7.70;;;31.20;96.80;;;;;;5053387;28;20215;-80
2023/09/11 06:03:07;;;;;;;12.00;8.37;;;31.70;95.80;;;;;;5050735;28;20187;-78
2023/09/11 06:05:36;;;;;;;8.57;7.50;;;32.40;93.00;;;;;;5052240;28;20982;-83
2023/09/11 06:08:03;;;;;;;9.47;8.53;;;33.10;91.30;;;;;;5062883;28;20194;-83
2023/09/11 06:10:29;;;;;;;9.27;8.33;;;33.80;89.90;;;;;;5060455;28;20465;-81
2023/09/11 06:12:54;;;;;;;11.67;10.53;;;34.50;86.90;;;;;;5064707;28;20467;-79
2023/09/11 06:15:20;;;;;;;16.73;10.87;;;35.50;82.10;;;;;;5057573;28;20203;-82
2023/09/11 06:17:45;;;;;;;12.63;11.07;;;36.50;77.70;;;;;;5065122;28;20222;-86
2023/09/11 06:20:13;;;;;;;15.53;10.97;;;37.10;71.90;;;;;;5059275;28;20220;-85
2023/09/11 06:22:40;;;;;;;11.90;10.70;;;37.30;68.00;;;;;;5046793;28;20979;-83
2023/09/11 06:25:07;;;;;;;12.10;10.67;;;37.20;65.40;;;;;;5051292;28;20449;-82
2023/09/11 06:27:34;;;;;;;11.80;10.60;;;37.10;65.10;;;;;;5056113;28;20191;-82
2023/09/11 06:30:00;;;;;;;11.03;9.93;;;37.40;64.10;;;;;;5052698;28;20463;-83
2023/09/11 06:32:26;;;;;;;12.30;11.10;;;37.70;62.00;;;;;;5053585;28;20456;-86
2023/09/11 06:34:51;;;;;;;10.93;9.90;;;38.00;61.50;;;;;;5055100;28;20453;-84
2023/09/11 06:37:17;;;;;;;11.50;10.30;;;37.80;60.20;;;;;;5057549;28;20190;-80
2023/09/11 06:39:43;;;;;;;13.70;12.37;;;37.20;59.70;;;;;;5049574;28;20224;-82
2023/09/11 06:42:08;;;;;;;12.20;11.10;;;36.70;59.80;;;;;;5060743;28;20210;-80
2023/09/11 06:44:34;;;;;;;15.40;11.00;;;36.70;60.70;;;;;;5070084;28;20299;-79
2023/09/11 06:46:59;;;;;;;12.83;11.63;;;36.00;60.20;;;;;;5066087;28;20196;-85
2023/09/11 06:49:25;;;;;;;13.27;11.50;;;36.10;62.30;;;;;;5064036;28;20297;-83
2023/09/11 06:51:50;;;;;;;13.87;12.43;;;35.90;61.20;;;;;;5077095;28;20206;-83
2023/09/11 06:54:16;;;;;;;15.87;12.07;;;35.50;60.60;;;;;;5061619;28;20217;-79
2023/09/11 06:56:42;;;;;;;17.60;12.07;;;36.10;62.10;;;;;;5053014;28;20212;-80
2023/09/11 06:59:08;;;;;;;12.53;11.23;;;36.20;61.70;;;;;;5060568;28;21208;-79
2023/09/11 07:01:38;;;;;;;13.10;11.63;;;36.60;59.80;;;;;;5051356;28;21653;-81
2023/09/11 07:04:11;;;;;;;13.23;11.97;;;37.00;60.40;;;;;;5058821;28;20187;-80
2023/09/11 07:06:40;;;;;;;12.83;11.53;;;37.00;59.20;;;;;;5055071;28;20446;-81
2023/09/11 07:09:08;;;;;;;13.13;12.03;;;37.00;59.50;;;;;;5056342;28;20464;-82
2023/09/11 07:11:34;;;;;;;14.87;11.47;;;36.90;58.50;;;;;;5057463;28;20636;-84
2023/09/11 07:14:01;;;;;;;13.63;12.23;;;35.90;58.70;;;;;;5058353;28;20456;-83
2023/09/11 07:16:26;;;;;;;18.43;12.13;;;36.40;60.40;;;;;;5064912;28;20449;-83
2023/09/11 07:18:52;;;;;;;13.50;11.50;;;36.30;58.80;;;;;;5059511;28;20560;-79
2023/09/11 07:21:18;;;;;;;15.27;13.87;;;36.60;59.10;;;;;;5062137;28;20252;-84
2023/09/11 07:23:43;;;;;;;11.40;10.50;;;36.40;58.60;;;;;;5062483;28;20251;-79
2023/09/11 07:26:09;;;;;;;15.27;12.40;;;36.60;59.80;;;;;;5058922;28;21321;-85
2023/09/11 07:28:56;;;;;;;14.13;12.37;;;37.30;58.90;;;;;;5065149;28;20218;-81
2023/09/11 07:31:23;;;;;;;18.00;11.80;;;37.50;58.30;;;;;;5060203;28;20200;-80
2023/09/11 07:33:48;;;;;;;16.20;13.07;;;38.00;57.60;;;;;;5063556;28;20529;-86
2023/09/11 07:36:15;;;;;;;14.07;12.67;;;37.20;57.40;;;;;;5060680;28;20798;-85
2023/09/11 07:38:44;;;;;;;21.90;12.70;;;36.50;57.60;;;;;;5064032;28;20967;-82
2023/09/11 07:41:11;;;;;;;16.40;12.90;;;37.30;58.40;;;;;;5056780;28;20662;-84
2023/09/11 07:43:36;;;;;;;16.30;12.40;;;37.50;57.60;;;;;;5066709;28;20448;-80
2023/09/11 07:46:02;;;;;;;15.40;12.37;;;37.70;56.70;;;;;;5062691;28;20544;-81
2023/09/11 07:48:27;;;;;;;17.70;12.20;;;37.70;56.80;;;;;;5071030;28;20204;-79
2023/09/11 07:50:56;;;;;;;14.33;12.83;;;37.10;57.10;;;;;;5063425;28;20308;-81
2023/09/11 07:53:22;;;;;;;13.53;12.23;;;37.40;57.50;;;;;;5070142;28;20187;-82
2023/09/11 07:55:48;;;;;;;14.63;13.23;;;;;;;;;;5067362;28;20434;-82
2023/09/11 07:58:16;;;;;;;20.73;13.50;;;39.40;55.50;;;;;;5084372;28;20168;-79
2023/09/11 08:00:42;;;;;;;16.13;14.40;;;39.20;54.30;;;;;;5074920;28;20482;-79
2023/09/11 08:03:07;;;;;;;16.63;14.30;;;39.00;54.80;;;;;;5072568;28;20634;-81
2023/09/11 08:05:33;;;;;;;16.10;14.60;;;38.50;54.80;;;;;;5067456;28;20180;-80
2023/09/11 08:08:01;;;;;;;15.83;14.33;;;38.20;56.00;;;;;;5066415;28;20237;-79
2023/09/11 08:10:28;;;;;;;15.37;14.17;;;39.20;54.80;;;;;;5067791;28;20298;-83
2023/09/11 08:12:53;;;;;;;15.83;14.40;;;38.30;53.70;;;;;;5061526;28;20449;-83
2023/09/11 08:15:19;;;;;;;15.57;14.07;;;38.40;55.50;;;;;;5061526;28;20434;-84
2023/09/11 08:17:45;;;;;;;15.83;14.57;;;39.20;55.40;;;;;;5066348;28;20267;-81
2023/09/11 08:20:11;;;;;;;16.83;15.27;;;39.70;53.70;;;;;;5066100;28;20220;-83
2023/09/11 08:22:37;;;;;;;17.93;14.83;;;40.70;53.30;;;;;;5068776;28;20211;-83
2023/09/11 08:25:03;;;;;;;17.70;16.03;;;40.20;50.40;;;;;;5063622;28;20451;-84
2023/09/11 08:27:29;;;;;;;16.97;15.57;;;;;;;;;;5065594;28;21266;-80
2023/09/11 08:29:55;;;;;;;16.93;15.00;;;39.70;50.00;;;;;;5066591;28;20466;-85
2023/09/11 08:32:21;;;;;;;16.60;14.90;;;38.90;53.10;;;;;;5068255;28;20445;-84
2023/09/11 08:34:47;;;;;;;15.93;14.60;;;39.30;53.00;;;;;;5061123;28;20540;-81
2023/09/11 08:37:12;;;;;;;20.60;15.10;;;38.30;52.80;;;;;;5061017;28;20184;-81
2023/09/11 08:39:38;;;;;;;16.33;15.00;;;38.80;53.50;;;;;;5057163;28;20537;-84
2023/09/11 08:42:04;;;;;;;17.57;13.97;;;38.60;52.60;;;;;;5059087;28;20665;-85
2023/09/11 08:44:30;;;;;;;20.80;15.43;;;38.60;53.10;;;;;;5052250;28;20192;-86
2023/09/11 08:46:59;;;;;;;15.13;13.93;;;39.60;52.30;;;;;;5060571;28;20769;-85
2023/09/11 08:49:27;;;;;;;15.53;13.60;;;39.70;51.30;;;;;;5066090;28;20220;-82
2023/09/11 08:51:53;;;;;;;15.70;14.40;;;40.30;51.60;;;;;;5084467;28;20450;-85
2023/09/11 08:54:23;;;;;;;16.13;14.73;;;41.30;51.60;;;;;;5077234;28;20518;-81
2023/09/11 08:56:49;;;;;;;19.90;18.00;;;41.80;49.20;;;;;;5072308;28;20431;-81
2023/09/11 08:59:17;;;;;;;18.73;16.60;;;41.30;48.60;;;;;;5061831;28;21190;-81
2023/09/11 09:01:44;;;;;;;16.27;14.77;;;40.30;49.20;;;;;;5054643;28;20259;-86
2023/09/11 09:04:11;;;;;;;16.20;14.87;;;39.20;51.40;;;;;;5053003;28;20484;-80
2023/09/11 09:06:37;;;;;;;17.33;14.47;;;38.00;52.40;;;;;;5055659;28;20513;-83
2023/09/11 09:09:03;;;;;;;15.70;14.50;;;37.60;54.70;;;;;;5059064;28;20430;-84
2023/09/11 09:11:30;;;;;;;15.73;14.13;;;37.70;55.30;;;;;;5057911;28;20447;-81
2023/09/11 09:13:56;;;;;;;14.40;12.90;;;38.10;55.00;;;;;;5061308;28;20192;-81
2023/09/11 09:16:21;;;;;;;17.03;15.33;;;39.40;54.20;;;;;;5073617;28;20442;-86
2023/09/11 09:18:49;;;;;;;16.50;15.00;;;38.30;52.80;;;;;;5063429;28;20188;-81
2023/09/11 09:21:16;;;;;;;16.77;14.97;;;37.20;56.60;;;;;;5058988;28;20203;-82
2023/09/11 09:23:41;;;;;;;17.03;15.53;;;36.90;55.70;;;;;;5060295;28;20464;-78
2023/09/11 09:26:09;;;;;;;16.67;15.07;;;36.10;55.70;;;;;;5059825;28;20449;-84
2023/09/11 09:28:42;;;;;;;18.27;15.77;;;37.20;57.00;;;;;;5055094;28;20184;-85
2023/09/11 09:31:08;;;;;;;15.77;14.23;;;35.90;57.60;;;;;;5056914;28;20545;-83
2023/09/11 09:33:34;;;;;;;15.53;14.13;;;35.30;61.10;;;;;;5054395;28;22593;-80
2023/09/11 09:36:00;;;;;;;15.43;13.93;;;36.20;58.10;;;;;;5054205;28;20564;-82
2023/09/11 09:38:26;;;;;;;19.07;15.00;;;37.40;55.80;;;;;;5058954;28;20529;-85
2023/09/11 09:40:54;;;;;;;17.27;15.83;;;38.80;54.60;;;;;;5057582;28;20215;-86
2023/09/11 09:43:21;;;;;;;16.67;15.17;;;;;;;;;;5050248;28;20446;-88
2023/09/11 09:45:47;;;;;;;17.03;14.53;;;39.30;53.40;;;;;;5051241;28;20430;-82
2023/09/11 09:48:20;;;;;;;16.67;14.87;;;38.60;53.30;;;;;;5051396;28;20451;-82
2023/09/11 09:51:00;;;;;;;16.07;14.53;;;37.40;54.70;;;;;;5049926;28;20468;-78
2023/09/11 09:53:41;;;;;;;15.20;14.10;;;39.60;51.70;;;;;;5063012;28;20446;-82
2023/09/11 09:56:08;;;;;;;15.20;14.00;;;40.50;49.60;;;;;;5065583;28;20520;-82
2023/09/11 09:58:36;;;;;;;17.43;15.30;;;40.40;50.10;;;;;;5085632;28;20451;-80
2023/09/11 10:01:13;;;;;;;18.60;16.83;;;41.00;50.00;;;;;;5078547;28;20496;-80
2023/09/11 10:03:51;;;;;;;18.20;16.13;;;40.90;49.70;;;;;;5064189;28;21109;-85
2023/09/11 10:06:27;;;;;;;20.80;16.37;;;40.40;48.90;;;;;;5054385;28;20898;-80
2023/09/11 10:09:10;;;;;;;17.37;16.00;;;39.50;50.00;;;;;;5061882;28;20437;-83
2023/09/11 10:11:37;;;;;;;15.70;14.23;;;38.00;51.60;;;;;;5070941;28;20453;-82
2023/09/11 10:14:05;;;;;;;16.43;14.67;;;36.50;54.40;;;;;;5048646;28;20457;-82
2023/09/11 10:16:31;;;;;;;14.47;13.20;;;34.60;56.00;;;;;;5056807;28;20538;-83
2023/09/11 10:18:59;;;;;;;13.97;12.57;;;33.40;59.00;;;;;;5055656;28;20485;-80
2023/09/11 10:21:25;;;;;;;12.67;11.37;;;32.50;59.70;;;;;;5064521;28;20529;-84
2023/09/11 10:23:54;;;;;;;10.90;9.80;;;31.50;60.00;;;;;;5059350;28;20558;-78
2023/09/11 10:26:27;;;;;;;11.83;10.70;;;31.40;59.00;;;;;;5051701;28;20586;-87
2023/09/11 10:28:58;;;;;;;11.40;10.30;;;31.30;59.50;;;;;;5054135;28;20442;-79
2023/09/11 10:31:26;;;;;;;13.50;10.50;;;31.00;60.80;;;;;;5060253;28;20449;-88
2023/09/11 10:33:57;;;;;;;10.20;9.20;;;31.00;62.30;;;;;;5065278;28;20737;-80
2023/09/11 10:36:26;;;;;;;10.83;8.97;;;30.90;62.90;;;;;;5063284;28;20527;-83
2023/09/11 10:38:56;;;;;;;14.27;9.40;;;30.90;62.50;;;;;;5064934;28;20441;-84
2023/09/11 10:41:22;;;;;;;11.93;8.67;;;31.20;64.30;;;;;;5062875;28;20464;-81
2023/09/11 10:43:48;;;;;;;11.33;7.90;;;30.70;60.50;;;;;;5056428;28;20508;-82
2023/09/11 10:46:18;;;;;;;11.70;8.63;;;30.80;58.80;;;;;;5060602;28;20508;-81
2023/09/11 10:48:43;;;;;;;11.33;8.47;;;30.70;59.80;;;;;;5066507;28;20206;-82
2023/09/11 10:51:09;;;;;;;9.73;8.73;;;30.60;61.40;;;;;;5060168;28;20484;-84
2023/09/11 10:53:35;;;;;;;11.57;8.57;;;30.60;59.90;;;;;;5062627;28;20579;-83
2023/09/11 10:56:02;;;;;;;12.63;9.80;;;30.80;64.30;;;;;;5061311;28;20201;-87
2023/09/11 10:58:28;;;;;;;12.33;8.43;;;30.70;65.30;;;;;;5065699;28;21163;-80
2023/09/11 11:00:55;;;;;;;13.73;9.33;;;30.30;67.30;;;;;;5057489;28;20577;-86
2023/09/11 11:03:27;;;;;;;9.83;8.27;;;30.10;68.60;;;;;;5074576;28;20555;-82
2023/09/11 11:05:53;;;;;;;17.17;9.17;;;30.10;70.50;;;;;;5070612;28;20495;-80
2023/09/11 11:08:19;;;;;;;11.27;8.10;;;30.10;71.10;;;;;;5072428;28;20434;-84
2023/09/11 11:10:55;;;;;;;13.10;8.10;;;30.00;69.10;;;;;;5072828;28;20467;-84
2023/09/11 11:13:21;;;;;;;15.63;8.20;;;30.20;70.40;;;;;;5071838;28;20192;-86
2023/09/11 11:15:47;;;;;;;9.33;7.50;;;30.10;69.10;;;;;;5070918;28;20450;-87
2023/09/11 11:18:25;;;;;;;15.70;8.80;;;30.00;68.30;;;;;;5071967;28;20528;-86
2023/09/11 11:20:59;;;;;;;11.47;8.20;;;29.90;70.20;;;;;;5066921;28;20212;-85
2023/09/11 11:23:28;;;;;;;9.73;8.13;;;30.20;69.00;;;;;;5080421;28;20442;-83
2023/09/11 11:25:54;;;;;;;13.60;9.90;;;30.40;68.20;;;;;;5060806;28;20444;-85
2023/09/11 11:28:23;;;;;;;11.77;7.27;;;30.50;67.90;;;;;;5071162;28;20441;-79
2023/09/11 11:30:52;;;;;;;15.17;8.47;;;30.50;68.50;;;;;;5060609;28;20278;-83
2023/09/11 11:33:23;;;;;;;10.50;7.93;;;30.60;66.40;;;;;;5064216;28;20875;-84
2023/09/11 11:35:50;;;;;;;19.37;9.47;;;30.80;67.40;;;;;;5053382;28;20455;-80
2023/09/11 11:38:19;;;;;;;12.70;8.50;;;30.70;68.80;;;;;;5062454;28;20524;-86
2023/09/11 11:40:47;;;;;;;9.17;8.27;;;30.40;71.40;;;;;;5066889;28;20470;-84
2023/09/11 11:43:14;;;;;;;13.47;8.20;;;30.10;71.30;;;;;;5063269;28;20447;-86
2023/09/11 11:45:44;;;;;;;13.40;9.30;;;30.20;73.00;;;;;;5060330;28;21238;-81
2023/09/11 11:48:10;;;;;;;12.93;8.47;;;30.30;70.60;;;;;;5061637;28;20453;-86
2023/09/11 11:50:46;;;;;;;11.10;8.10;;;30.20;68.70;;;;;;5052291;28;20546;-84
2023/09/11 11:53:16;;;;;;;12.43;8.53;;;30.40;70.70;;;;;;5056588;28;20451;-83
2023/09/11 11:55:42;;;;;;;10.43;7.63;;;30.70;71.50;;;;;;5072181;28;20689;-78
2023/09/11 11:58:09;;;;;;;13.10;7.70;;;30.60;70.10;;;;;;5076080;28;20539;-82
2023/09/11 12:00:38;;;;;;;9.00;7.23;;;30.50;71.70;;;;;;5069540;28;20467;-82
2023/09/11 12:03:05;;;;;;;9.87;7.43;;;30.40;70.50;;;;;;5061919;28;20467;-79
2023/09/11 12:05:31;;;;;;;9.93;7.90;;;30.40;69.10;;;;;;5055157;28;20452;-84
2023/09/11 12:07:56;;;;;;;16.60;8.17;;;30.50;68.30;;;;;;5073021;28;20548;-80
2023/09/11 12:10:22;;;;;;;15.70;7.43;;;30.80;69.20;;;;;;5061889;28;20814;-81
2023/09/11 12:12:48;;;;;;;9.10;7.50;;;30.90;66.70;;;;;;5065486;28;20446;-83
2023/09/11 12:15:15;;;;;;;13.87;8.10;;;31.00;66.90;;;;;;5064266;28;20210;-85
2023/09/11 12:17:46;;;;;;;11.47;7.43;;;30.90;66.10;;;;;;5064832;28;20281;-83
2023/09/11 12:20:14;;;;;;;15.10;8.07;;;31.10;64.80;;;;;;5067671;28;20590;-79
2023/09/11 12:22:42;;;;;;;11.03;8.00;;;31.20;63.30;;;;;;5060696;28;20501;-80
2023/09/11 12:25:08;;;;;;;18.20;8.10;;;31.40;63.50;;;;;;5060852;28;20494;-84
2023/09/11 12:27:35;;;;;;;11.03;8.17;;;31.40;63.90;;;;;;5060997;28;20923;-84
2023/09/11 12:30:03;;;;;;;12.77;7.37;;;31.40;64.20;;;;;;5068973;28;20222;-84
2023/09/11 12:32:29;;;;;;;11.37;7.87;;;31.10;65.20;;;;;;5066774;28;21338;-80
2023/09/11 12:34:55;;;;;;;11.53;8.40;;;31.10;64.10;;;;;;5061748;28;20454;-84